Time;durP1;ratioP1;P1;durP2;ratioP2;P2;SDS_P1;SDS_P2;PMS_P1;PMS_P2;Temp;Humidity;BMP_temperature;BMP_pressure;BME280_temperature;BME280_humidity;BME280_pressure;Samples;Min_cycle;Max_cycle;Signal;HPM_P1;HPM_P2
2022/04/07 00:00:34;;;;;;;9.33;9.03;;;10.30;99.90;;;;;;5005424;28;20240;-81
2022/04/07 00:03:02;;;;;;;9.47;9.17;;;10.30;99.90;;;;;;5016519;28;20225;-82
2022/04/07 00:05:30;;;;;;;9.40;9.10;;;10.40;99.90;;;;;;5015946;28;20225;-82
2022/04/07 00:07:59;;;;;;;9.47;9.17;;;10.40;99.90;;;;;;5015605;28;20236;-82
2022/04/07 00:10:29;;;;;;;9.23;8.93;;;10.30;99.90;;;;;;5016379;28;20248;-82
2022/04/07 00:12:57;;;;;;;9.40;9.10;;;10.30;99.90;;;;;;5013491;28;20236;-82
2022/04/07 00:15:25;;;;;;;9.20;8.90;;;10.40;99.90;;;;;;5001822;28;20224;-82
2022/04/07 00:17:53;;;;;;;9.10;8.90;;;10.30;99.90;;;;;;5001850;28;20237;-81
2022/04/07 00:20:21;;;;;;;9.57;9.27;;;10.40;99.90;;;;;;5001189;28;20228;-82
2022/04/07 00:22:50;;;;;;;9.30;9.00;;;10.40;99.90;;;;;;5001287;28;20303;-82
2022/04/07 00:25:19;;;;;;;8.90;8.70;;;10.40;99.90;;;;;;5001822;28;20302;-82
2022/04/07 00:27:48;;;;;;;9.10;8.90;;;10.40;99.90;;;;;;5002249;28;20236;-81
2022/04/07 00:30:19;;;;;;;9.40;9.10;;;10.40;99.90;;;;;;5002565;28;20299;-81
2022/04/07 00:32:48;;;;;;;9.37;9.07;;;10.40;99.90;;;;;;5002252;28;20240;-81
2022/04/07 00:35:16;;;;;;;9.40;9.10;;;10.40;99.90;;;;;;5002934;28;20229;-81
2022/04/07 00:37:44;;;;;;;9.97;9.67;;;10.40;99.90;;;;;;5003971;28;20233;-81
2022/04/07 00:40:13;;;;;;;9.60;9.30;;;10.40;99.90;;;;;;5002481;28;20295;-82
2022/04/07 00:42:50;;;;;;;9.97;9.67;;;10.40;99.90;;;;;;5001764;28;20256;-81
2022/04/07 00:45:20;;;;;;;9.70;9.40;;;10.30;99.90;;;;;;5002287;28;20240;-81
2022/04/07 00:47:50;;;;;;;9.80;9.50;;;10.30;99.90;;;;;;5002694;28;20253;-80
2022/04/07 00:50:21;;;;;;;9.50;9.20;;;10.30;99.90;;;;;;5001883;28;20241;-82
2022/04/07 00:52:54;;;;;;;9.80;9.50;;;10.30;99.90;;;;;;5001986;28;20245;-81
2022/04/07 00:55:22;;;;;;;9.83;9.53;;;10.30;99.90;;;;;;5001896;28;20233;-81
2022/04/07 00:57:51;;;;;;;9.77;9.47;;;10.30;99.90;;;;;;5009025;28;20233;-81
2022/04/07 01:00:19;;;;;;;9.63;9.33;;;10.30;99.90;;;;;;5002454;28;20785;-81
2022/04/07 01:02:47;;;;;;;10.00;9.70;;;10.30;99.90;;;;;;5002965;28;20224;-81
2022/04/07 01:05:14;;;;;;;9.87;9.57;;;10.30;99.90;;;;;;5013137;28;20240;-82
2022/04/07 01:07:44;;;;;;;9.63;9.33;;;10.20;99.90;;;;;;5003811;28;20299;-81
2022/04/07 01:10:12;;;;;;;9.90;9.60;;;10.20;99.90;;;;;;5002564;28;20236;-81
2022/04/07 01:12:43;;;;;;;9.80;9.50;;;10.20;99.90;;;;;;5001775;28;20240;-82
2022/04/07 01:15:13;;;;;;;10.10;9.80;;;10.30;99.90;;;;;;5002954;28;20221;-82
2022/04/07 01:17:41;;;;;;;9.90;9.60;;;10.20;99.90;;;;;;5002376;28;20291;-82
2022/04/07 01:20:12;;;;;;;9.80;9.50;;;10.20;99.90;;;;;;5001704;28;20324;-82
2022/04/07 01:22:44;;;;;;;10.40;10.10;;;10.20;99.90;;;;;;5003518;28;20256;-82
2022/04/07 01:25:14;;;;;;;10.13;9.83;;;10.20;99.90;;;;;;5003602;28;20232;-82
2022/04/07 01:27:42;;;;;;;10.50;10.20;;;10.30;99.90;;;;;;5007238;28;20279;-82
2022/04/07 01:30:11;;;;;;;10.33;10.03;;;10.30;99.90;;;;;;5012534;28;20236;-82
2022/04/07 01:32:44;;;;;;;9.90;9.60;;;10.30;99.90;;;;;;5018200;28;20221;-82
2022/04/07 01:35:13;;;;;;;10.43;10.13;;;10.30;99.90;;;;;;5018612;28;20217;-82
2022/04/07 01:37:44;;;;;;;10.33;10.03;;;10.30;99.90;;;;;;5018648;28;20237;-82
2022/04/07 01:40:17;;;;;;;10.07;9.77;;;10.30;99.90;;;;;;5018070;28;20224;-82
2022/04/07 01:42:47;;;;;;;10.17;9.87;;;10.30;99.90;;;;;;5019206;28;20220;-82
2022/04/07 01:45:16;;;;;;;10.10;9.80;;;10.20;99.90;;;;;;5018944;28;20259;-82
2022/04/07 01:47:45;;;;;;;10.17;9.87;;;10.20;99.90;;;;;;5018811;28;20241;-83
2022/04/07 01:50:15;;;;;;;10.10;9.80;;;10.20;99.90;;;;;;5017719;28;20225;-83
2022/04/07 01:52:45;;;;;;;9.67;9.37;;;10.20;99.90;;;;;;5017067;28;20229;-82
2022/04/07 01:55:16;;;;;;;9.90;9.60;;;10.20;99.90;;;;;;5017902;28;20228;-81
2022/04/07 01:57:46;;;;;;;9.80;9.50;;;10.20;99.90;;;;;;5015829;28;20253;-82
2022/04/07 02:00:15;;;;;;;9.80;9.50;;;10.20;99.90;;;;;;5016154;28;20237;-82
2022/04/07 02:02:45;;;;;;;10.20;9.90;;;10.20;99.90;;;;;;5014639;28;20296;-83
2022/04/07 02:05:13;;;;;;;10.00;9.70;;;10.20;99.90;;;;;;5010490;28;21064;-82
2022/04/07 02:07:43;;;;;;;9.67;9.37;;;10.20;99.90;;;;;;5015827;28;20236;-83
2022/04/07 02:10:14;;;;;;;9.90;9.60;;;10.20;99.90;;;;;;5016635;28;20260;-82
2022/04/07 02:12:43;;;;;;;9.83;9.53;;;10.20;99.90;;;;;;5005604;28;20220;-82
2022/04/07 02:15:13;;;;;;;9.90;9.60;;;10.20;99.90;;;;;;5003845;28;20233;-82
2022/04/07 02:17:41;;;;;;;9.40;9.10;;;10.20;99.90;;;;;;5003535;28;20233;-82
2022/04/07 02:20:11;;;;;;;9.60;9.30;;;10.20;99.90;;;;;;5003085;28;20240;-82
2022/04/07 02:22:39;;;;;;;9.57;9.27;;;10.20;99.90;;;;;;5003167;28;20229;-82
2022/04/07 02:25:09;;;;;;;9.70;9.40;;;10.20;99.90;;;;;;5002381;28;20283;-82
2022/04/07 02:27:40;;;;;;;9.57;9.27;;;10.20;99.90;;;;;;5002403;28;20241;-82
2022/04/07 02:30:11;;;;;;;9.80;9.50;;;10.20;99.90;;;;;;5001616;28;20295;-82
2022/04/07 02:32:38;;;;;;;9.73;9.43;;;10.20;99.90;;;;;;5000855;28;20243;-82
2022/04/07 02:35:08;;;;;;;9.77;9.47;;;10.20;99.90;;;;;;5001834;28;20228;-82
2022/04/07 02:37:36;;;;;;;9.53;9.23;;;10.10;99.90;;;;;;5004932;28;20233;-82
2022/04/07 02:40:05;;;;;;;9.67;9.37;;;10.10;99.90;;;;;;5015960;28;20221;-82
2022/04/07 02:42:33;;;;;;;9.43;9.13;;;10.00;99.90;;;;;;5016968;28;20239;-83
2022/04/07 02:45:03;;;;;;;10.00;9.70;;;10.00;99.90;;;;;;5019344;28;20221;-83
2022/04/07 02:47:32;;;;;;;9.80;9.50;;;10.00;99.90;;;;;;5015655;28;20224;-82
2022/04/07 02:50:02;;;;;;;9.80;9.50;;;9.90;99.90;;;;;;4998986;28;20240;-82
2022/04/07 02:52:30;;;;;;;9.80;9.50;;;9.80;99.90;;;;;;4997813;28;20244;-82
2022/04/07 02:54:58;;;;;;;9.70;9.40;;;9.80;99.90;;;;;;4998917;28;20228;-82
2022/04/07 02:57:30;;;;;;;9.40;9.10;;;9.70;99.90;;;;;;5000143;28;20225;-82
2022/04/07 02:59:59;;;;;;;9.40;9.10;;;9.60;99.90;;;;;;4999348;28;20228;-82
2022/04/07 03:02:29;;;;;;;9.33;9.03;;;9.60;99.90;;;;;;4998524;28;20240;-82
2022/04/07 03:04:57;;;;;;;9.60;9.30;;;9.60;99.90;;;;;;4999797;28;20260;-82
2022/04/07 03:07:25;;;;;;;9.50;9.20;;;9.60;99.90;;;;;;4999656;28;20232;-82
2022/04/07 03:09:52;;;;;;;9.10;8.90;;;9.60;99.90;;;;;;5000230;28;20244;-82
2022/04/07 03:12:20;;;;;;;9.23;9.00;;;9.50;99.90;;;;;;5000681;28;20243;-82
2022/04/07 03:14:48;;;;;;;9.30;9.00;;;9.40;99.90;;;;;;5000476;28;20237;-82
2022/04/07 03:17:16;;;;;;;8.93;8.73;;;9.40;99.90;;;;;;5000125;28;20225;-82
2022/04/07 03:19:46;;;;;;;9.30;9.00;;;9.40;99.90;;;;;;5000445;28;20241;-82
2022/04/07 03:22:15;;;;;;;9.13;8.90;;;9.40;99.90;;;;;;5000357;28;20252;-82
2022/04/07 03:24:43;;;;;;;8.90;8.70;;;9.40;99.90;;;;;;5015180;28;20301;-82
2022/04/07 03:27:12;;;;;;;9.40;9.10;;;9.30;99.90;;;;;;5020193;28;20224;-82
2022/04/07 03:29:39;;;;;;;9.77;9.47;;;9.30;99.90;;;;;;5007056;28;20252;-80
2022/04/07 03:32:08;;;;;;;9.70;9.40;;;9.30;99.90;;;;;;5005639;28;20299;-80
2022/04/07 03:34:36;;;;;;;9.13;8.87;;;9.30;99.90;;;;;;5005512;28;20233;-80
2022/04/07 03:37:07;;;;;;;9.23;8.93;;;9.20;99.90;;;;;;5005504;28;20243;-79
2022/04/07 03:39:35;;;;;;;9.50;9.20;;;9.20;99.90;;;;;;5004587;28;20229;-79
2022/04/07 03:42:03;;;;;;;9.10;8.90;;;9.20;99.90;;;;;;5003107;28;20233;-79
2022/04/07 03:44:31;;;;;;;8.90;8.70;;;9.10;99.90;;;;;;5003490;28;20260;-79
2022/04/07 03:46:59;;;;;;;9.60;9.30;;;9.10;99.90;;;;;;5003151;28;20316;-80
2022/04/07 03:49:27;;;;;;;9.10;8.87;;;9.10;99.90;;;;;;5003898;28;20254;-80
2022/04/07 03:51:55;;;;;;;9.50;9.20;;;9.10;99.90;;;;;;5002330;28;20300;-80
2022/04/07 03:54:24;;;;;;;9.50;9.20;;;9.10;99.90;;;;;;5002752;28;20288;-79
2022/04/07 03:56:51;;;;;;;9.70;9.40;;;9.00;99.90;;;;;;5003290;28;20244;-79
2022/04/07 03:59:19;;;;;;;9.80;9.50;;;9.00;99.90;;;;;;5003756;28;20300;-79
2022/04/07 04:01:47;;;;;;;9.80;9.50;;;9.00;99.90;;;;;;5010324;28;20217;-79
2022/04/07 04:04:15;;;;;;;9.97;9.67;;;8.90;99.90;;;;;;5007141;28;20224;-80
2022/04/07 04:06:43;;;;;;;10.23;9.93;;;8.90;99.90;;;;;;5004037;28;20233;-79
2022/04/07 04:09:10;;;;;;;10.20;9.90;;;8.80;99.90;;;;;;5003772;28;20217;-80
2022/04/07 04:11:40;;;;;;;10.60;10.30;;;8.80;99.90;;;;;;5002774;28;20248;-79
2022/04/07 04:14:07;;;;;;;10.43;10.13;;;8.80;99.90;;;;;;5002248;28;20264;-80
2022/04/07 04:16:35;;;;;;;10.40;10.10;;;8.80;99.90;;;;;;5002245;28;20236;-79
2022/04/07 04:19:03;;;;;;;10.43;10.13;;;8.80;99.90;;;;;;5002386;28;20229;-79
2022/04/07 04:21:31;;;;;;;10.57;10.27;;;8.80;99.90;;;;;;5001983;28;20229;-80
2022/04/07 04:23:58;;;;;;;10.57;10.27;;;8.80;99.90;;;;;;5002430;28;20240;-79
2022/04/07 04:26:26;;;;;;;10.50;10.20;;;8.80;99.90;;;;;;5003034;28;20284;-80
2022/04/07 04:28:56;;;;;;;11.43;11.03;;;8.70;99.90;;;;;;5002199;28;20235;-79
2022/04/07 04:31:28;;;;;;;11.03;10.73;;;8.70;99.90;;;;;;5027989;22;20241;-82
2022/04/07 04:33:57;;;;;;;11.70;11.30;;;8.70;99.90;;;;;;5040279;28;20322;-80
2022/04/07 04:36:28;;;;;;;11.40;11.00;;;8.70;99.90;;;;;;5041985;28;20231;-80
2022/04/07 04:38:56;;;;;;;11.40;11.00;;;8.70;99.90;;;;;;5042525;28;20228;-79
2022/04/07 04:41:26;;;;;;;10.73;10.43;;;8.80;99.90;;;;;;5040881;28;20306;-79
2022/04/07 04:44:00;;;;;;;11.30;10.90;;;8.80;99.90;;;;;;5042125;28;20243;-79
2022/04/07 04:46:28;;;;;;;11.37;10.97;;;8.80;99.90;;;;;;5042425;28;20239;-79
2022/04/07 04:48:56;;;;;;;10.83;10.53;;;8.90;99.90;;;;;;5042939;28;20247;-79
2022/04/07 04:51:24;;;;;;;11.10;10.80;;;8.90;99.90;;;;;;5041751;28;20219;-79
2022/04/07 04:53:53;;;;;;;10.60;10.30;;;8.90;99.90;;;;;;5028268;28;20235;-80
2022/04/07 04:56:22;;;;;;;10.80;10.50;;;9.00;99.90;;;;;;5041968;28;20286;-80
2022/04/07 04:58:52;;;;;;;10.60;10.30;;;9.00;99.90;;;;;;5043071;28;20220;-79
2022/04/07 05:01:30;;;;;;;10.50;10.20;;;9.10;99.90;;;;;;5044008;28;20227;-80
2022/04/07 05:03:59;;;;;;;10.60;10.30;;;9.10;99.90;;;;;;5055197;28;20278;-80
2022/04/07 05:06:29;;;;;;;10.77;10.47;;;9.10;99.90;;;;;;5051147;28;20245;-80
2022/04/07 05:08:59;;;;;;;10.67;10.37;;;9.10;99.90;;;;;;5037641;28;20228;-80
2022/04/07 05:11:28;;;;;;;10.30;10.00;;;9.10;99.90;;;;;;5052211;28;20227;-78
2022/04/07 05:13:57;;;;;;;11.00;10.70;;;9.10;99.90;;;;;;5055733;28;20239;-78
2022/04/07 05:19:14;;;;;;;11.20;10.87;;;9.20;99.90;;;;;;5043598;28;20255;-79
2022/04/07 05:21:44;;;;;;;11.13;10.83;;;9.20;99.90;;;;;;5043857;28;20254;-80
2022/04/07 05:24:15;;;;;;;11.00;10.70;;;9.20;99.90;;;;;;5043386;28;20242;-80
2022/04/07 05:26:43;;;;;;;11.00;10.70;;;9.20;99.90;;;;;;5041898;28;20238;-80
2022/04/07 05:29:15;;;;;;;10.80;10.50;;;9.30;99.90;;;;;;5041718;28;20335;-80
2022/04/07 05:31:46;;;;;;;10.80;10.50;;;9.30;99.90;;;;;;5041950;28;20244;-80
2022/04/07 05:34:14;;;;;;;10.80;10.50;;;9.30;99.90;;;;;;5042220;28;20239;-80
2022/04/07 05:36:43;;;;;;;10.90;10.60;;;9.30;99.90;;;;;;5042875;28;20239;-80
2022/04/07 05:39:12;;;;;;;10.87;10.57;;;9.40;99.90;;;;;;5047599;28;20722;-80
2022/04/07 05:41:41;;;;;;;10.60;10.30;;;9.40;99.90;;;;;;5043021;28;20224;-81
2022/04/07 05:44:10;;;;;;;10.70;10.40;;;9.40;99.90;;;;;;5044424;28;20231;-80
2022/04/07 05:46:39;;;;;;;10.40;10.10;;;9.50;99.90;;;;;;5059980;28;20228;-79
2022/04/07 05:49:21;;;;;;;10.30;10.00;;;9.50;99.90;;;;;;5059238;28;20208;-80
2022/04/07 05:51:53;;;;;;;10.33;10.03;;;9.60;99.90;;;;;;5050813;28;20327;-79
2022/04/07 05:57:04;;;;;;;10.20;9.90;;;9.70;99.90;;;;;;5040354;28;20235;-79
2022/04/07 05:59:33;;;;;;;10.10;9.80;;;9.80;99.90;;;;;;5039549;28;20236;-79
2022/04/07 06:02:02;;;;;;;10.10;9.80;;;9.80;99.90;;;;;;5039825;28;20347;-80
2022/04/07 06:04:41;;;;;;;9.80;9.50;;;9.90;99.90;;;;;;5040606;28;20342;-80
2022/04/07 06:07:11;;;;;;;9.30;9.00;;;9.90;99.90;;;;;;5040143;28;20231;-79
2022/04/07 06:09:40;;;;;;;9.80;9.50;;;10.00;99.90;;;;;;5040336;28;20257;-80
2022/04/07 06:12:09;;;;;;;9.70;9.40;;;10.00;99.90;;;;;;5039576;28;20273;-80
2022/04/07 06:14:39;;;;;;;9.30;9.00;;;10.00;99.90;;;;;;5040973;28;20254;-81
2022/04/07 06:17:08;;;;;;;9.90;9.60;;;10.00;99.90;;;;;;5042727;28;20250;-82
2022/04/07 06:22:24;;;;;;;9.80;9.50;;;10.10;99.90;;;;;;5043388;28;20241;-82
2022/04/07 06:24:54;;;;;;;9.80;9.50;;;10.10;99.90;;;;;;5043862;28;20259;-83
2022/04/07 06:27:23;;;;;;;9.50;9.20;;;10.20;99.90;;;;;;5043288;28;20718;-83
2022/04/07 06:29:56;;;;;;;9.70;9.40;;;10.20;99.90;;;;;;5043542;28;20289;-87
2022/04/07 06:32:24;;;;;;;9.90;9.60;;;10.30;99.90;;;;;;5044521;28;20250;-83
2022/04/07 06:34:54;;;;;;;9.77;9.47;;;10.30;99.90;;;;;;5058827;28;20216;-83
2022/04/07 06:37:22;;;;;;;10.40;10.10;;;10.50;99.90;;;;;;5046677;28;20310;-83
2022/04/07 06:39:51;;;;;;;10.03;9.73;;;10.50;99.90;;;;;;5044629;28;20250;-84
2022/04/07 06:42:20;;;;;;;9.90;9.60;;;10.70;99.90;;;;;;5043738;28;20231;-84
2022/04/07 06:44:51;;;;;;;10.00;9.70;;;10.80;99.90;;;;;;5041425;28;20286;-84
2022/04/07 06:47:18;;;;;;;9.70;9.40;;;10.90;99.90;;;;;;5042532;28;20231;-83
2022/04/07 06:49:50;;;;;;;9.70;9.40;;;11.00;99.90;;;;;;5034507;28;20248;-82
2022/04/07 06:52:20;;;;;;;9.67;9.37;;;11.00;99.90;;;;;;5028403;28;20227;-81
2022/04/07 06:54:48;;;;;;;9.50;9.20;;;11.20;99.90;;;;;;5033117;28;20243;-82
2022/04/07 06:57:17;;;;;;;9.47;9.17;;;11.20;99.90;;;;;;5040679;28;20784;-82
2022/04/07 06:59:46;;;;;;;9.60;9.30;;;11.30;99.90;;;;;;5040748;28;20235;-81
2022/04/07 07:02:16;;;;;;;10.30;10.00;;;11.30;99.90;;;;;;5041715;28;20246;-81
2022/04/07 07:04:45;;;;;;;10.00;9.70;;;11.40;99.90;;;;;;5040817;28;20265;-82
2022/04/07 07:07:16;;;;;;;10.27;9.97;;;11.50;99.90;;;;;;5025043;28;20224;-81
2022/04/07 07:09:46;;;;;;;10.00;9.70;;;11.50;99.90;;;;;;5024978;28;20304;-81
2022/04/07 07:12:14;;;;;;;10.13;9.83;;;11.60;99.90;;;;;;5025473;28;20280;-82
2022/04/07 07:14:43;;;;;;;10.37;10.07;;;11.60;99.90;;;;;;5026744;28;20239;-81
2022/04/07 07:17:13;;;;;;;10.13;9.83;;;11.60;99.90;;;;;;5039047;28;20236;-82
2022/04/07 07:19:42;;;;;;;9.77;9.47;;;11.70;99.90;;;;;;5033991;28;20227;-81
2022/04/07 07:22:11;;;;;;;9.80;9.50;;;11.80;99.90;;;;;;5025034;28;20224;-82
2022/04/07 07:24:40;;;;;;;9.60;9.30;;;11.80;99.90;;;;;;5024824;28;20291;-82
2022/04/07 07:27:18;;;;;;;9.73;9.43;;;11.90;99.90;;;;;;5026632;28;20228;-82
2022/04/07 07:29:51;;;;;;;9.70;9.40;;;11.90;99.90;;;;;;5025356;28;20310;-82
2022/04/07 07:32:20;;;;;;;9.67;9.37;;;11.80;99.90;;;;;;5029939;28;20266;-81
2022/04/07 07:34:49;;;;;;;9.60;9.30;;;11.90;99.90;;;;;;5028560;28;20236;-80
2022/04/07 07:37:19;;;;;;;9.60;9.30;;;11.90;99.90;;;;;;5031621;28;20232;-82
2022/04/07 07:39:50;;;;;;;9.80;9.50;;;11.90;99.90;;;;;;5026736;28;20228;-81
2022/04/07 07:42:20;;;;;;;9.60;9.30;;;11.80;99.90;;;;;;5024154;28;21035;-80
2022/04/07 07:44:47;;;;;;;9.80;9.50;;;11.80;99.90;;;;;;5025984;28;20255;-81
2022/04/07 07:47:17;;;;;;;10.10;9.80;;;11.80;99.90;;;;;;5025626;28;20261;-82
2022/04/07 07:49:46;;;;;;;9.90;9.60;;;11.80;99.90;;;;;;5025735;28;20225;-82
2022/04/07 07:52:15;;;;;;;10.20;9.90;;;11.80;99.90;;;;;;5024982;28;20243;-82
2022/04/07 07:57:34;;;;;;;10.80;10.50;;;12.10;99.90;;;;;;5025572;28;20236;-84
2022/04/07 08:07:22;;;;;;;10.63;10.33;;;12.10;99.90;;;;;;4998379;28;20323;-86
2022/04/07 08:10:10;;;;;;;10.70;10.40;;;12.20;99.90;;;;;;5006798;28;20241;-85
2022/04/07 08:15:52;;;;;;;10.40;10.10;;;12.10;99.90;;;;;;5001465;28;20251;-82
2022/04/07 08:18:49;;;;;;;10.27;9.97;;;12.10;99.90;;;;;;5004711;28;20315;-81
2022/04/07 08:21:53;;;;;;;10.43;10.13;;;12.10;99.90;;;;;;5005416;28;20779;-84
2022/04/07 08:28:10;;;;;;;9.80;9.50;;;12.00;99.90;;;;;;5003999;28;20224;-84
2022/04/07 08:34:09;;;;;;;9.83;9.53;;;11.70;99.90;;;;;;5007338;28;20607;-84
2022/04/07 08:36:47;;;;;;;10.40;10.10;;;11.70;99.90;;;;;;5006581;28;20684;-85
2022/04/07 08:39:43;;;;;;;10.03;9.73;;;11.70;99.90;;;;;;5020129;28;20222;-85
2022/04/07 08:49:12;;;;;;;10.00;9.70;;;11.40;99.90;;;;;;5014201;28;20333;-85
2022/04/07 08:55:06;;;;;;;10.10;9.80;;;11.30;99.90;;;;;;5020961;28;20296;-85
2022/04/07 09:00:43;;;;;;;10.20;9.90;;;11.20;99.90;;;;;;5020541;28;20232;-85
2022/04/07 09:03:33;;;;;;;10.00;9.70;;;11.10;99.90;;;;;;5016973;28;20226;-85
2022/04/07 09:16:13;;;;;;;9.90;9.60;;;11.30;99.90;;;;;;5010142;28;20266;-85
2022/04/07 09:25:29;;;;;;;9.97;9.67;;;11.70;99.90;;;;;;4960857;28;20372;-84
2022/04/07 09:28:06;;;;;;;9.80;9.50;;;11.80;99.90;;;;;;5004778;28;20220;-85
2022/04/07 09:30:55;;;;;;;9.77;9.47;;;11.90;99.90;;;;;;5025101;28;20243;-86
2022/04/07 09:37:21;;;;;;;9.70;9.40;;;12.00;99.90;;;;;;5022061;28;20236;-86
2022/04/07 09:40:25;;;;;;;9.60;9.30;;;12.10;99.90;;;;;;5023430;28;20223;-86
2022/04/07 09:45:50;;;;;;;9.60;9.30;;;12.30;99.90;;;;;;5013089;28;20231;-83
2022/04/07 09:48:32;;;;;;;9.70;9.40;;;12.30;99.90;;;;;;5012983;28;20238;-84
2022/04/07 09:51:28;;;;;;;9.80;9.50;;;12.40;99.90;;;;;;5012890;28;20286;-83
2022/04/07 09:54:03;;;;;;;10.00;9.70;;;12.50;99.90;;;;;;5029545;28;20331;-84
2022/04/07 09:56:31;;;;;;;9.80;9.50;;;12.60;99.90;;;;;;5039025;28;20294;-81
2022/04/07 09:59:05;;;;;;;10.10;9.80;;;12.70;99.90;;;;;;5041342;28;20297;-83
2022/04/07 10:01:50;;;;;;;9.70;9.40;;;12.80;99.90;;;;;;5040791;28;20289;-81
2022/04/07 10:04:37;;;;;;;9.70;9.40;;;12.80;99.90;;;;;;5033841;28;20294;-81
2022/04/07 10:07:16;;;;;;;10.00;9.70;;;12.90;99.90;;;;;;5042538;28;20299;-81
2022/04/07 10:13:17;;;;;;;9.83;9.53;;;12.90;99.90;;;;;;5025341;28;20230;-82
2022/04/07 10:16:05;;;;;;;9.90;9.60;;;13.00;99.90;;;;;;5044257;28;20235;-82
2022/04/07 10:19:45;;;;;;;;;;;;;;;;;;;;;
2022/04/07 10:23:08;;;;;;;9.70;9.40;;;12.90;99.90;;;;;;5002815;28;20231;-82
2022/04/07 10:25:43;;;;;;;9.80;9.50;;;12.80;99.90;;;;;;5001468;28;20225;-81
2022/04/07 10:28:14;;;;;;;10.07;9.77;;;12.60;99.90;;;;;;5002460;28;20327;-81
2022/04/07 10:31:43;;;;;;;9.80;9.50;;;12.40;99.90;;;;;;5001438;28;20243;-84
2022/04/07 10:34:11;;;;;;;9.73;9.43;;;12.20;99.90;;;;;;5037558;23;20737;-81
2022/04/07 10:36:39;;;;;;;9.50;9.20;;;12.00;99.90;;;;;;5033578;28;20289;-83
2022/04/07 10:39:15;;;;;;;8.90;8.70;;;11.90;99.90;;;;;;5038180;28;20274;-83
2022/04/07 10:41:50;;;;;;;9.60;9.30;;;11.80;99.90;;;;;;5025230;28;20223;-82
2022/04/07 10:44:21;;;;;;;9.40;9.10;;;11.90;99.90;;;;;;5022667;28;20242;-82
2022/04/07 10:46:49;;;;;;;9.83;9.53;;;12.00;99.90;;;;;;5014316;28;20224;-81
2022/04/07 10:49:24;;;;;;;9.80;9.50;;;12.10;99.90;;;;;;5023388;28;20223;-82
2022/04/07 10:51:53;;;;;;;9.83;9.53;;;12.20;99.90;;;;;;5023422;28;20255;-81
2022/04/07 10:54:24;;;;;;;9.80;9.50;;;12.40;99.90;;;;;;5022414;28;20243;-80
2022/04/07 10:56:56;;;;;;;9.80;9.50;;;12.50;99.90;;;;;;5022831;28;20286;-81
2022/04/07 10:59:27;;;;;;;10.10;9.80;;;12.60;99.90;;;;;;5023446;28;20232;-81
2022/04/07 11:02:00;;;;;;;10.00;9.70;;;12.70;99.90;;;;;;5022683;28;20295;-81
2022/04/07 11:04:44;;;;;;;10.40;10.10;;;12.80;99.90;;;;;;5022400;28;20240;-81
2022/04/07 11:07:19;;;;;;;10.43;10.13;;;12.90;99.90;;;;;;5016607;28;20264;-82
2022/04/07 11:10:10;;;;;;;10.40;10.10;;;12.90;99.90;;;;;;5003234;28;20228;-84
2022/04/07 11:12:43;;;;;;;10.23;9.93;;;13.00;99.90;;;;;;5013171;28;20248;-82
2022/04/07 11:15:52;;;;;;;10.40;10.10;;;13.00;99.90;;;;;;5015514;28;20229;-82
2022/04/07 11:18:49;;;;;;;10.20;9.90;;;13.00;99.90;;;;;;5002983;28;20225;-82
2022/04/07 11:21:19;;;;;;;10.27;9.97;;;12.90;99.90;;;;;;5004652;28;20256;-83
2022/04/07 11:23:53;;;;;;;10.30;10.00;;;12.90;99.90;;;;;;5003750;28;20304;-82
2022/04/07 11:26:28;;;;;;;9.97;9.67;;;12.80;99.90;;;;;;5003881;28;20374;-82
2022/04/07 11:29:12;;;;;;;10.40;10.10;;;12.80;99.90;;;;;;5003860;28;20244;-82
2022/04/07 11:31:48;;;;;;;10.10;9.80;;;12.80;99.90;;;;;;5004508;28;20233;-82
2022/04/07 11:34:51;;;;;;;10.30;10.00;;;12.90;99.90;;;;;;5003598;28;20248;-81
2022/04/07 11:37:21;;;;;;;10.20;9.90;;;13.00;99.90;;;;;;5034729;28;20241;-84
2022/04/07 11:39:50;;;;;;;10.17;9.87;;;13.10;99.90;;;;;;5024518;28;20290;-82
2022/04/07 11:42:27;;;;;;;10.63;10.33;;;13.20;99.90;;;;;;5024567;28;20236;-83
2022/04/07 11:45:01;;;;;;;10.07;9.77;;;13.20;99.90;;;;;;5024335;28;20236;-83
2022/04/07 11:47:32;;;;;;;10.40;10.10;;;13.20;99.90;;;;;;5023345;28;20306;-82
2022/04/07 11:50:01;;;;;;;10.10;9.80;;;13.20;99.90;;;;;;5023153;28;20307;-82
2022/04/07 11:52:31;;;;;;;10.20;9.90;;;13.30;99.90;;;;;;5024216;28;20232;-82
2022/04/07 11:55:02;;;;;;;10.47;10.17;;;13.50;99.90;;;;;;5024039;28;20256;-82
2022/04/07 11:57:35;;;;;;;10.07;9.77;;;13.70;99.90;;;;;;5024512;28;20251;-82
2022/04/07 12:00:12;;;;;;;10.30;10.00;;;13.80;99.90;;;;;;5030406;28;20235;-83
2022/04/07 12:02:39;;;;;;;10.50;10.20;;;13.90;99.90;;;;;;5023834;28;20250;-82
2022/04/07 12:05:11;;;;;;;10.40;10.10;;;14.00;99.90;;;;;;5023590;28;20259;-82
2022/04/07 12:07:40;;;;;;;10.17;9.87;;;14.00;99.90;;;;;;5023843;28;20423;-83
2022/04/07 12:10:10;;;;;;;10.13;9.83;;;13.90;99.90;;;;;;5050763;28;20227;-82
2022/04/07 12:12:41;;;;;;;9.93;9.63;;;13.80;99.90;;;;;;5038835;28;20278;-82
2022/04/07 12:15:11;;;;;;;9.63;9.33;;;13.80;99.90;;;;;;5048333;28;20212;-82
2022/04/07 12:17:59;;;;;;;10.10;9.80;;;13.80;99.90;;;;;;5040690;28;20212;-83
2022/04/07 12:20:26;;;;;;;10.00;9.70;;;13.80;99.90;;;;;;5039325;28;20308;-84
2022/04/07 12:23:07;;;;;;;10.30;10.00;;;13.90;99.90;;;;;;5040224;28;20251;-82
2022/04/07 12:25:35;;;;;;;10.53;10.23;;;14.00;99.90;;;;;;5040091;28;20224;-83
2022/04/07 12:28:17;;;;;;;10.70;10.40;;;14.20;99.90;;;;;;5038790;28;20228;-82
2022/04/07 12:30:49;;;;;;;10.37;10.07;;;14.40;99.90;;;;;;5038300;28;20212;-83
2022/04/07 12:33:37;;;;;;;10.03;9.73;;;14.60;99.90;;;;;;5037226;28;20257;-83
2022/04/07 12:36:40;;;;;;;10.30;10.00;;;14.90;99.90;;;;;;5037035;28;20228;-83
2022/04/07 12:39:10;;;;;;;10.33;10.03;;;15.00;99.90;;;;;;5037364;28;20227;-82
2022/04/07 12:41:40;;;;;;;10.33;10.03;;;14.90;99.90;;;;;;5037554;28;20231;-86
2022/04/07 12:44:14;;;;;;;10.30;10.00;;;14.80;99.90;;;;;;5037772;28;20260;-83
2022/04/07 12:46:56;;;;;;;10.00;9.70;;;14.60;99.90;;;;;;5038682;28;20260;-84
2022/04/07 12:49:26;;;;;;;10.00;9.70;;;14.40;99.90;;;;;;5037193;28;20300;-82
2022/04/07 12:52:06;;;;;;;10.40;10.10;;;14.40;99.90;;;;;;5035783;28;20225;-83
2022/04/07 12:54:35;;;;;;;10.13;9.83;;;14.40;99.90;;;;;;5037120;28;20228;-84
2022/04/07 12:57:14;;;;;;;9.87;9.57;;;14.60;99.90;;;;;;5035072;28;20227;-83
2022/04/07 12:59:56;;;;;;;9.77;9.47;;;14.90;99.90;;;;;;5032401;28;20223;-81
2022/04/07 13:02:24;;;;;;;9.67;9.37;;;15.10;99.90;;;;;;5037859;28;20200;-85
2022/04/07 13:04:56;;;;;;;10.37;10.07;;;15.00;99.90;;;;;;5037807;28;20216;-84
2022/04/07 13:07:24;;;;;;;9.90;9.60;;;14.90;99.90;;;;;;5031592;28;20235;-80
2022/04/07 13:09:51;;;;;;;10.33;10.03;;;14.80;99.90;;;;;;5003036;28;20292;-79
2022/04/07 13:12:20;;;;;;;10.00;9.70;;;14.80;99.90;;;;;;5005092;28;20288;-80
2022/04/07 13:14:49;;;;;;;10.10;9.80;;;14.80;99.90;;;;;;5005166;28;20264;-81
2022/04/07 13:17:17;;;;;;;9.80;9.50;;;14.60;99.90;;;;;;5004500;28;20232;-81
2022/04/07 13:19:45;;;;;;;10.07;9.77;;;14.60;99.90;;;;;;5005985;28;20221;-82
2022/04/07 13:22:13;;;;;;;9.90;9.60;;;14.50;99.90;;;;;;5007056;28;20233;-82
2022/04/07 13:24:44;;;;;;;10.00;9.70;;;14.40;99.90;;;;;;5005141;28;20271;-81
2022/04/07 13:27:12;;;;;;;10.17;9.87;;;14.40;99.90;;;;;;5005657;28;20242;-82
2022/04/07 13:29:40;;;;;;;10.23;9.93;;;14.50;99.90;;;;;;5006003;28;20225;-82
2022/04/07 13:32:09;;;;;;;9.80;9.50;;;14.60;99.90;;;;;;5005185;28;20229;-81
2022/04/07 13:34:37;;;;;;;10.37;10.07;;;14.60;99.90;;;;;;5004303;28;20240;-81
2022/04/07 13:37:05;;;;;;;9.87;9.57;;;14.60;99.90;;;;;;5006425;28;20239;-81
2022/04/07 13:39:33;;;;;;;9.90;9.60;;;14.60;99.90;;;;;;5022049;28;20324;-81
2022/04/07 13:42:01;;;;;;;9.90;9.60;;;14.70;99.90;;;;;;5023132;28;20229;-81
2022/04/07 13:44:29;;;;;;;10.47;10.17;;;14.80;99.90;;;;;;5024800;28;20240;-81
2022/04/07 13:46:57;;;;;;;10.30;10.00;;;14.90;99.90;;;;;;5007081;28;20237;-81
2022/04/07 13:49:26;;;;;;;9.70;9.40;;;14.90;99.90;;;;;;5004161;28;20295;-81
2022/04/07 13:51:56;;;;;;;9.77;9.47;;;14.90;99.90;;;;;;5024689;28;20233;-82
2022/04/07 13:54:24;;;;;;;9.83;9.53;;;14.90;99.90;;;;;;5030256;28;20236;-82
2022/04/07 13:56:52;;;;;;;9.87;9.57;;;15.00;99.90;;;;;;5027691;28;20240;-81
2022/04/07 13:59:19;;;;;;;9.73;9.43;;;15.10;99.90;;;;;;5034616;28;20228;-82
2022/04/07 14:01:48;;;;;;;10.00;9.70;;;15.20;99.90;;;;;;5031554;28;20217;-80
2022/04/07 14:04:16;;;;;;;10.10;9.80;;;15.20;99.90;;;;;;5025674;28;20235;-80
2022/04/07 14:06:45;;;;;;;9.80;9.50;;;15.20;99.90;;;;;;5028164;28;20236;-83
2022/04/07 14:09:17;;;;;;;9.83;9.53;;;15.10;99.90;;;;;;5027834;28;20244;-82
2022/04/07 14:11:48;;;;;;;9.87;9.57;;;15.10;99.90;;;;;;5010251;28;20287;-82
2022/04/07 14:14:16;;;;;;;9.87;9.57;;;15.00;99.90;;;;;;5030993;28;20240;-82
2022/04/07 14:16:44;;;;;;;9.77;9.47;;;15.00;99.90;;;;;;5030021;28;20270;-82